Time;durP1;ratioP1;P1;durP2;ratioP2;P2;SDS_P1;SDS_P2;PMS_P1;PMS_P2;Temp;Humidity;BMP_temperature;BMP_pressure;BME280_temperature;BME280_humidity;BME280_pressure;Samples;Min_cycle;Max_cycle;Signal;HPM_P1;HPM_P2
2023/08/13 00:00:52;;;;;;;7.00;2.70;;;;;;;17.75;100.00;99851.06;104720;1256;72431;-63
2023/08/13 00:03:19;;;;;;;3.60;2.50;;;;;;;17.74;100.00;99856.83;104642;1266;61494;-66
2023/08/13 00:05:46;;;;;;;5.00;2.90;;;;;;;17.64;100.00;99859.08;104415;1260;59915;-61
2023/08/13 00:08:13;;;;;;;3.80;2.80;;;;;;;17.71;100.00;99855.72;104523;1262;73497;-66
2023/08/13 00:10:40;;;;;;;4.50;2.80;;;;;;;17.66;100.00;99859.48;107161;1258;69971;-66
2023/08/13 00:13:07;;;;;;;2.80;2.30;;;;;;;17.72;100.00;99858.15;106498;1260;72356;-64
2023/08/13 00:15:34;;;;;;;3.20;2.60;;;;;;;17.70;100.00;99857.59;104403;1256;61423;-63
2023/08/13 00:18:00;;;;;;;6.20;2.90;;;;;;;17.71;100.00;99857.85;104319;1263;59913;-64
2023/08/13 00:20:28;;;;;;;4.40;2.60;;;;;;;17.67;100.00;99856.89;104540;1261;72441;-66
2023/08/13 00:22:55;;;;;;;4.80;3.00;;;;;;;17.62;100.00;99858.48;104213;1271;70090;-64
2023/08/13 00:25:22;;;;;;;3.20;2.50;;;;;;;17.54;100.00;99857.79;104029;1261;72780;-64
2023/08/13 00:27:48;;;;;;;5.10;2.90;;;;;;;17.56;100.00;99854.80;103964;1277;62211;-64
2023/08/13 00:30:15;;;;;;;4.50;2.90;;;;;;;17.52;100.00;99853.71;104321;1258;60041;-65
2023/08/13 00:32:42;;;;;;;7.50;2.70;;;;;;;17.50;100.00;99852.60;104042;1263;73524;-64
2023/08/13 00:35:09;;;;;;;7.10;3.40;;;;;;;17.48;100.00;99858.41;104417;1266;69502;-65
2023/08/13 00:37:37;;;;;;;5.30;2.70;;;;;;;17.44;100.00;99856.19;104055;1262;73111;-66
2023/08/13 00:40:05;;;;;;;3.60;3.30;;;;;;;17.37;100.00;99857.76;104206;1258;61393;-65
2023/08/13 00:42:34;;;;;;;8.80;3.40;;;;;;;17.31;100.00;99858.11;103954;1263;59662;-65
2023/08/13 00:45:00;;;;;;;3.20;2.90;;;;;;;17.32;100.00;99860.23;103984;1274;72836;-65
2023/08/13 00:47:28;;;;;;;5.30;3.40;;;;;;;17.36;100.00;99861.35;104118;1261;69548;-65
2023/08/13 00:49:55;;;;;;;8.00;3.50;;;;;;;17.34;100.00;99859.33;104157;1258;71282;-65
2023/08/13 00:52:22;;;;;;;3.20;2.70;;;;;;;17.26;100.00;99860.73;104127;1257;61475;-64
2023/08/13 00:54:49;;;;;;;2.80;2.60;;;;;;;17.27;100.00;99863.18;104012;1263;60453;-66
2023/08/13 00:57:15;;;;;;;4.70;2.80;;;;;;;17.26;100.00;99857.93;104119;1276;73763;-65
2023/08/13 00:59:43;;;;;;;3.20;2.90;;;;;;;17.28;100.00;99862.61;107421;1256;69770;-63
2023/08/13 01:02:10;;;;;;;3.00;2.70;;;;;;;17.31;100.00;99865.04;104266;1258;73018;-64
2023/08/13 01:04:37;;;;;;;5.20;2.90;;;;;;;17.26;100.00;99862.38;104285;1264;61998;-64
2023/08/13 01:07:55;;;;;;;7.50;3.10;;;;;;;17.25;100.00;99860.46;104029;1278;59940;-65
2023/08/13 01:10:35;;;;;;;4.90;2.80;;;;;;;17.29;100.00;99861.08;103805;1268;72521;-65
2023/08/13 01:13:11;;;;;;;4.40;3.40;;;;;;;17.28;100.00;99863.61;104026;1273;69234;-66
2023/08/13 01:15:39;;;;;;;3.60;2.90;;;;;;;17.31;100.00;99861.30;104185;1257;72273;-65
2023/08/13 01:18:07;;;;;;;3.20;2.90;;;;;;;17.30;100.00;99857.48;104150;1268;61696;-65
2023/08/13 01:20:39;;;;;;;4.00;3.00;;;;;;;17.30;100.00;99860.15;104453;1268;59946;-64
2023/08/13 01:23:06;;;;;;;2.80;2.50;;;;;;;17.29;100.00;99862.84;104221;1279;73783;-65
2023/08/13 01:25:33;;;;;;;4.60;3.00;;;;;;;17.28;100.00;99859.94;103935;1262;69869;-65
2023/08/13 01:28:21;;;;;;;4.30;2.60;;;;;;;17.26;100.00;99862.73;104092;1258;72392;-65
2023/08/13 01:30:51;;;;;;;3.60;3.20;;;;;;;17.21;100.00;99863.59;104269;1266;61911;-65
2023/08/13 01:33:26;;;;;;;3.10;2.60;;;;;;;17.22;100.00;99866.88;103995;1269;60429;-64
2023/08/13 01:36:04;;;;;;;7.00;2.80;;;;;;;17.24;100.00;99868.88;103988;1264;73507;-64
2023/08/13 01:38:31;;;;;;;4.20;2.70;;;;;;;17.19;100.00;99870.27;104085;1260;69054;-65
2023/08/13 01:41:02;;;;;;;4.10;2.90;;;;;;;17.22;100.00;99875.36;104165;1261;71952;-65
2023/08/13 01:43:29;;;;;;;2.90;2.70;;;;;;;17.23;100.00;99875.84;104151;1263;62068;-66
2023/08/13 01:45:59;;;;;;;7.40;2.60;;;;;;;17.22;100.00;99873.05;104128;1269;60014;-65
2023/08/13 01:48:26;;;;;;;7.10;3.00;;;;;;;17.23;100.00;99875.11;104184;1274;72485;-65
2023/08/13 01:50:53;;;;;;;5.90;2.70;;;;;;;17.24;100.00;99875.98;104266;1269;70013;-65
2023/08/13 01:53:20;;;;;;;3.10;2.60;;;;;;;17.22;100.00;99876.41;104129;1269;72993;-65
2023/08/13 01:55:47;;;;;;;3.20;2.30;;;;;;;17.23;100.00;99877.64;104201;1276;60905;-65
2023/08/13 01:58:14;;;;;;;6.40;2.30;;;;;;;17.20;100.00;99882.06;104244;1261;60523;-66
2023/08/13 02:00:41;;;;;;;4.70;3.10;;;;;;;17.18;100.00;99881.67;104323;1261;74280;-66
2023/08/13 02:03:10;;;;;;;9.40;2.70;;;;;;;17.17;100.00;99879.99;104223;1279;69235;-66
2023/08/13 02:05:37;;;;;;;6.00;3.00;;;;;;;17.10;100.00;99881.63;104137;1261;73449;-65
2023/08/13 02:08:05;;;;;;;4.40;2.60;;;;;;;17.11;100.00;99881.75;104145;1262;62397;-66
2023/08/13 02:10:32;;;;;;;2.90;2.30;;;;;;;17.11;100.00;99881.05;104298;1262;60525;-66
2023/08/13 02:12:59;;;;;;;4.20;2.70;;;;;;;17.12;100.00;99880.83;104783;1259;73885;-65
2023/08/13 02:15:26;;;;;;;5.20;2.60;;;;;;;17.13;100.00;99878.60;104233;1270;70324;-66
2023/08/13 02:17:53;;;;;;;5.20;2.60;;;;;;;17.18;100.00;99880.77;104425;1259;72415;-65
2023/08/13 02:20:20;;;;;;;6.30;2.90;;;;;;;17.21;100.00;99886.77;104245;1262;61505;-65
2023/08/13 02:22:47;;;;;;;3.50;2.40;;;;;;;17.24;100.00;99885.33;104275;1258;60536;-65
2023/08/13 02:25:14;;;;;;;2.70;2.50;;;;;;;17.21;100.00;99882.72;104175;1270;73291;-65
2023/08/13 02:27:41;;;;;;;5.90;2.90;;;;;;;17.20;100.00;99887.56;104335;1259;69498;-65
2023/08/13 02:30:09;;;;;;;3.90;2.90;;;;;;;17.19;100.00;99884.94;104440;1259;72670;-65
2023/08/13 02:32:36;;;;;;;5.80;2.70;;;;;;;17.21;100.00;99886.06;104205;1263;61206;-65
2023/08/13 02:35:03;;;;;;;2.80;2.50;;;;;;;17.22;100.00;99889.36;104191;1261;60656;-65
2023/08/13 02:37:30;;;;;;;5.20;2.90;;;;;;;17.25;100.00;99889.33;104276;1255;73614;-65
2023/08/13 02:39:58;;;;;;;9.80;3.00;;;;;;;17.24;100.00;99890.69;104152;1261;69170;-66
2023/08/13 02:42:25;;;;;;;4.50;2.80;;;;;;;17.20;100.00;99890.90;104189;1276;72830;-67
2023/08/13 02:44:51;;;;;;;6.00;2.70;;;;;;;17.24;100.00;99887.66;104160;1275;60521;-66
2023/08/13 02:47:18;;;;;;;5.50;2.60;;;;;;;17.25;100.00;99887.19;104173;1276;60553;-66
2023/08/13 02:49:45;;;;;;;3.10;2.40;;;;;;;17.24;100.00;99884.98;104295;1260;73765;-66
2023/08/13 02:52:12;;;;;;;4.70;2.40;;;;;;;17.29;100.00;99881.99;104220;1261;69377;-66
2023/08/13 02:54:39;;;;;;;3.80;2.80;;;;;;;17.26;100.00;99883.41;104097;1263;72895;-66
2023/08/13 02:57:06;;;;;;;3.40;2.60;;;;;;;17.30;100.00;99885.85;104340;1274;61993;-67
2023/08/13 02:59:33;;;;;;;6.50;2.80;;;;;;;17.35;100.00;99887.64;104392;1261;60561;-66
2023/08/13 03:02:00;;;;;;;4.20;2.80;;;;;;;17.37;100.00;99889.27;104139;1276;74258;-65
2023/08/13 03:04:27;;;;;;;6.00;2.60;;;;;;;17.37;100.00;99891.77;104251;1278;70278;-66
2023/08/13 03:06:53;;;;;;;4.40;3.30;;;;;;;17.36;100.00;99892.20;104373;1278;72725;-66
2023/08/13 03:09:21;;;;;;;3.00;2.50;;;;;;;17.32;100.00;99896.16;104608;1260;60787;-66
2023/08/13 03:11:48;;;;;;;4.30;2.50;;;;;;;17.28;100.00;99897.11;104197;1271;60982;-67
2023/08/13 03:14:16;;;;;;;7.00;2.70;;;;;;;17.16;100.00;99900.07;104262;1270;73703;-66
2023/08/13 03:16:43;;;;;;;5.30;2.80;;;;;;;17.19;100.00;99903.19;104174;1267;69200;-67
2023/08/13 03:19:10;;;;;;;5.60;2.70;;;;;;;17.22;100.00;99901.63;104367;1264;72293;-66
2023/08/13 03:21:37;;;;;;;3.60;2.80;;;;;;;17.20;100.00;99902.26;104248;1277;61734;-66
2023/08/13 03:24:05;;;;;;;5.00;2.70;;;;;;;17.20;100.00;99904.42;104185;1260;60460;-66
2023/08/13 03:26:32;;;;;;;2.80;2.50;;;;;;;17.26;100.00;99908.92;104197;1260;73478;-65
2023/08/13 03:28:58;;;;;;;4.90;2.20;;;;;;;17.25;100.00;99908.98;104232;1260;69288;-66
2023/08/13 03:31:25;;;;;;;3.80;3.00;;;;;;;17.24;100.00;99909.59;104100;1273;71188;-61
2023/08/13 03:34:03;;;;;;;4.40;2.80;;;;;;;17.17;100.00;99907.96;104087;1260;61738;-62
2023/08/13 03:36:30;;;;;;;5.50;2.80;;;;;;;17.15;100.00;99908.61;104177;1257;60533;-63
2023/08/13 03:38:56;;;;;;;3.70;2.80;;;;;;;17.19;100.00;99911.55;104508;1261;73685;-64
2023/08/13 03:41:23;;;;;;;6.10;2.80;;;;;;;17.22;100.00;99912.05;104140;1273;70238;-63
2023/08/13 03:43:50;;;;;;;2.70;2.40;;;;;;;17.23;100.00;99913.20;104338;1260;72316;-63
2023/08/13 03:46:17;;;;;;;5.50;3.10;;;;;;;17.28;100.00;99915.52;104330;1260;61428;-64
2023/08/13 03:48:44;;;;;;;3.50;2.90;;;;;;;17.33;100.00;99913.83;104341;1269;60556;-63
2023/08/13 03:51:11;;;;;;;4.70;3.40;;;;;;;17.39;100.00;99918.52;104291;1260;74825;-62
2023/08/13 03:53:38;;;;;;;4.20;2.90;;;;;;;17.44;100.00;99917.84;104224;1275;69905;-63
2023/08/13 03:56:05;;;;;;;6.80;3.10;;;;;;;17.42;100.00;99919.36;104234;1275;73540;-63
2023/08/13 03:58:34;;;;;;;6.70;2.70;;;;;;;17.43;100.00;99922.90;104515;1254;60248;-63
2023/08/13 04:01:06;;;;;;;4.40;2.90;;;;;;;17.46;100.00;99926.55;104341;1253;60502;-63
2023/08/13 04:03:34;;;;;;;6.10;2.90;;;;;;;17.46;100.00;99929.38;104462;1254;73501;-63
2023/08/13 04:06:01;;;;;;;7.10;3.40;;;;;;;17.56;100.00;99934.09;104295;1265;70243;-62
2023/08/13 04:08:29;;;;;;;3.60;3.20;;;;;;;17.60;100.00;99936.64;104325;1269;72959;-64
2023/08/13 04:10:56;;;;;;;3.50;2.70;;;;;;;17.67;100.00;99933.66;104459;1265;61794;-64
2023/08/13 04:13:23;;;;;;;3.80;2.90;;;;;;;17.75;100.00;99938.15;104395;1258;60444;-64
2023/08/13 04:15:49;;;;;;;5.90;3.30;;;;;;;17.82;100.00;99937.48;108014;1253;73444;-64
2023/08/13 04:18:16;;;;;;;3.00;2.70;;;;;;;17.88;100.00;99932.08;104678;1262;68477;-63
2023/08/13 04:20:43;;;;;;;5.80;2.80;;;;;;;17.93;100.00;99931.92;104523;1254;73115;-63
2023/08/13 04:23:10;;;;;;;3.20;2.90;;;;;;;18.00;100.00;99930.02;104340;1258;61636;-63
2023/08/13 04:25:39;;;;;;;;;;;;;;;18.07;100.00;99933.64;104481;1276;60646;-64
2023/08/13 04:28:07;;;;;;;4.40;2.80;;;;;;;18.18;100.00;99933.42;104587;1257;73991;-64
2023/08/13 04:30:37;;;;;;;5.60;2.80;;;;;;;18.27;100.00;99935.42;104541;1254;70145;-63
2023/08/13 04:33:04;;;;;;;4.80;3.00;;;;;;;18.36;100.00;99935.02;104385;1260;73111;-62
2023/08/13 04:35:31;;;;;;;5.90;3.10;;;;;;;18.47;100.00;99935.65;104291;1270;60973;-61
2023/08/13 04:37:59;;;;;;;4.80;3.00;;;;;;;18.54;100.00;99939.59;104384;1271;60426;-66
2023/08/13 04:40:26;;;;;;;;;;;;;;;18.62;100.00;99937.38;104276;1254;73883;-67
2023/08/13 04:42:53;;;;;;;3.90;2.70;;;;;;;18.66;100.00;99937.63;104239;1254;69867;-67
2023/08/13 04:45:20;;;;;;;3.70;3.30;;;;;;;18.74;100.00;99937.98;104252;1276;73329;-64
2023/08/13 04:47:47;;;;;;;6.40;2.60;;;;;;;18.78;100.00;99939.27;104395;1257;61708;-64
2023/08/13 06:14:50;;;;;;;4.80;2.70;;;;;;;22.13;100.00;99939.64;104253;1278;75225;-62
2023/08/13 06:17:16;;;;;;;3.30;2.90;;;;;;;22.23;100.00;99939.65;104278;1278;70028;-62
2023/08/13 06:19:43;;;;;;;4.50;2.80;;;;;;;22.35;100.00;99938.14;104307;1277;72471;-63
2023/08/13 06:22:11;;;;;;;3.30;2.90;;;;;;;22.47;100.00;99939.95;104298;1271;61972;-62
2023/08/13 06:24:38;;;;;;;6.90;3.00;;;;;;;22.54;100.00;99940.76;104286;1257;60552;-63
2023/08/13 06:27:06;;;;;;;7.10;3.00;;;;;;;22.64;100.00;99942.20;104322;1257;74106;-62
2023/08/13 06:29:33;;;;;;;5.00;2.50;;;;;;;22.77;100.00;99937.27;104274;1267;70270;-61
2023/08/13 06:32:00;;;;;;;3.00;2.60;;;;;;;22.86;100.00;99939.27;104457;1257;71078;-63
2023/08/13 06:34:27;;;;;;;3.00;2.50;;;;;;;22.94;100.00;99937.00;104341;1258;61810;-62
2023/08/13 06:36:57;;;;;;;9.50;2.20;;;;;;;23.03;100.00;99938.52;104359;1261;59834;-63
2023/08/13 06:39:24;;;;;;;5.60;2.60;;;;;;;23.16;100.00;99940.05;104351;1270;74298;-63
2023/08/13 06:41:51;;;;;;;4.40;2.40;;;;;;;23.21;100.00;99942.48;104303;1276;68078;-64
2023/08/13 06:44:19;;;;;;;3.50;2.20;;;;;;;23.31;100.00;99946.14;104234;1258;73003;-62
2023/08/13 06:46:46;;;;;;;;;;;;;;;23.44;100.00;99943.06;104331;1254;61790;-63
2023/08/13 06:49:13;;;;;;;3.00;2.30;;;;;;;23.51;100.00;99939.01;104342;1270;60530;-60
2023/08/13 06:51:40;;;;;;;2.60;2.30;;;;;;;23.53;100.00;99938.66;104351;1276;73886;-62
2023/08/13 06:54:06;;;;;;;2.50;2.30;;;;;;;23.68;100.00;99944.56;104479;1276;69190;-62
2023/08/13 06:56:35;;;;;;;3.70;2.30;;;;;;;23.74;100.00;99945.30;104331;1257;71363;-62
2023/08/13 06:59:03;;;;;;;2.50;2.00;;;;;;;23.83;99.44;99946.80;104318;1254;61595;-62
2023/08/13 07:01:32;;;;;;;3.60;2.00;;;;;;;23.93;99.32;99946.79;104311;1259;60542;-61
2023/08/13 07:03:59;;;;;;;2.50;2.00;;;;;;;23.94;95.71;99944.52;104505;1254;73650;-59
2023/08/13 07:06:26;;;;;;;2.90;2.40;;;;;;;24.00;96.04;99942.87;104824;1255;68282;-60
2023/08/13 07:08:53;;;;;;;1.80;1.60;;;;;;;24.14;99.44;99932.96;108377;1253;72639;-62
2023/08/13 07:11:20;;;;;;;4.30;2.20;;;;;;;24.28;97.51;99938.10;106414;1253;60639;-60
2023/08/13 07:13:49;;;;;;;3.60;1.80;;;;;;;24.39;95.36;99936.84;104442;1269;62383;-59
2023/08/13 07:16:17;;;;;;;3.90;1.80;;;;;;;24.50;88.96;99935.08;104439;1256;74241;-60
2023/08/13 07:18:43;;;;;;;2.90;1.90;;;;;;;24.52;84.91;99935.62;104438;1254;69191;-60
2023/08/13 07:21:11;;;;;;;2.30;2.00;;;;;;;24.53;85.65;99937.81;104285;1266;73450;-62
2023/08/13 07:23:38;;;;;;;2.60;2.00;;;;;;;24.68;90.38;99939.79;104761;1254;61302;-60
2023/08/13 07:26:05;;;;;;;4.80;1.90;;;;;;;24.79;87.73;99939.44;104324;1263;60573;-59
2023/08/13 07:28:35;;;;;;;2.20;2.00;;;;;;;24.82;83.59;99938.84;104545;1254;74671;-63
2023/08/13 07:31:05;;;;;;;3.40;2.00;;;;;;;24.87;82.27;99935.61;104319;1258;69390;-61
2023/08/13 07:33:32;;;;;;;5.10;2.00;;;;;;;24.88;79.74;99934.10;104276;1256;72939;-63
2023/08/13 07:36:00;;;;;;;2.60;1.90;;;;;;;24.86;76.72;99933.75;104334;1269;60485;-59
2023/08/13 07:38:27;;;;;;;2.10;1.90;;;;;;;24.94;76.34;99935.28;104296;1265;60431;-60
2023/08/13 07:40:58;;;;;;;4.10;1.60;;;;;;;24.95;76.64;99934.68;104401;1257;74454;-61
2023/08/13 07:43:25;;;;;;;4.10;1.90;;;;;;;25.06;77.74;99929.26;104308;1257;70047;-62
2023/08/13 07:45:53;;;;;;;2.20;1.80;;;;;;;25.18;75.63;99935.66;104285;1254;72999;-61
2023/08/13 07:48:20;;;;;;;4.10;2.00;;;;;;;25.29;74.72;99927.20;104284;1257;60914;-61
2023/08/13 07:50:47;;;;;;;4.30;1.80;;;;;;;25.29;71.42;99927.55;104264;1258;60555;-61
2023/08/13 07:53:16;;;;;;;1.90;1.80;;;;;;;25.42;74.58;99928.02;104254;1256;74289;-60
2023/08/13 07:55:43;;;;;;;2.20;1.90;;;;;;;25.47;70.67;99924.19;104337;1276;69598;-60
2023/08/13 07:58:10;;;;;;;4.10;2.00;;;;;;;25.46;68.71;99925.49;104470;1253;72761;-60
2023/08/13 08:00:36;;;;;;;6.00;2.00;;;;;;;25.42;68.91;99932.55;104588;1254;60699;-60
2023/08/13 08:03:05;;;;;;;3.80;1.80;;;;;;;25.48;69.84;99927.66;104588;1264;60507;-61
2023/08/13 08:05:33;;;;;;;;;;;;;;;25.37;65.86;99932.50;104313;1255;74543;-60
2023/08/13 08:08:00;;;;;;;2.10;1.60;;;;;;;25.31;66.92;99923.94;104445;1266;69860;-60
2023/08/13 08:10:28;;;;;;;3.30;1.70;;;;;;;25.39;66.02;99924.19;104397;1254;72179;-59
2023/08/13 08:12:55;;;;;;;2.60;1.80;;;;;;;25.53;65.72;99921.79;105797;1253;60466;-61
2023/08/13 08:15:22;;;;;;;3.80;2.20;;;;;;;25.61;66.00;99922.87;104485;1260;60488;-60
2023/08/13 08:17:49;;;;;;;4.60;1.90;;;;;;;25.65;63.20;99920.36;108430;1254;74310;-65
2023/08/13 08:20:16;;;;;;;5.10;1.80;;;;;;;25.71;62.87;99917.38;106360;1254;69582;-60
2023/08/13 08:22:43;;;;;;;1.60;1.40;;;;;;;25.91;63.53;99910.31;104646;1253;72034;-60
2023/08/13 08:25:10;;;;;;;5.10;1.90;;;;;;;26.04;63.25;99909.73;104603;1253;60539;-60
2023/08/13 08:27:37;;;;;;;3.20;1.80;;;;;;;26.21;63.07;99905.31;104681;1253;60562;-61
2023/08/13 08:30:05;;;;;;;3.60;1.80;;;;;;;26.36;62.44;99907.50;104441;1276;74290;-61
2023/08/13 08:32:32;;;;;;;;;;;;;;;26.50;62.22;99906.42;104286;1258;68913;-60
2023/08/13 08:34:59;;;;;;;3.90;1.60;;;;;;;26.56;57.78;99907.55;104384;1257;72227;-59
2023/08/13 08:37:26;;;;;;;1.80;1.70;;;;;;;26.50;53.93;99903.35;104302;1256;60456;-62
2023/08/13 08:39:53;;;;;;;1.90;1.50;;;;;;;26.49;53.73;99901.29;104296;1276;59931;-60
2023/08/13 08:42:20;;;;;;;3.00;1.50;;;;;;;26.56;56.90;99900.28;104343;1257;73654;-60
2023/08/13 08:44:47;;;;;;;2.00;1.80;;;;;;;26.73;59.91;99901.67;104870;1254;70067;-61
2023/08/13 08:47:14;;;;;;;3.00;2.10;;;;;;;26.89;57.38;99903.23;104279;1257;72175;-61
2023/08/13 08:49:41;;;;;;;3.00;2.10;;;;;;;26.97;58.02;99903.42;104465;1254;60514;-61
2023/08/13 08:52:08;;;;;;;1.80;1.50;;;;;;;26.94;58.85;99903.52;104923;1254;60544;-61
2023/08/13 08:54:37;;;;;;;2.00;1.60;;;;;;;26.85;55.20;99900.77;104570;1254;74223;-63
2023/08/13 08:57:05;;;;;;;3.80;1.70;;;;;;;26.87;54.67;99901.82;104707;1253;69906;-61
2023/08/13 08:59:32;;;;;;;1.30;1.20;;;;;;;26.79;55.71;99906.21;104442;1253;72414;-59
2023/08/13 09:01:59;;;;;;;5.70;1.80;;;;;;;26.61;54.61;99909.17;104646;1260;60539;-61
2023/08/13 09:04:26;;;;;;;2.80;2.20;;;;;;;26.51;54.87;99905.79;104384;1257;60613;-62
2023/08/13 09:07:00;;;;;;;4.10;1.90;;;;;;;26.49;53.51;99904.86;104500;1258;73638;-61
2023/08/13 09:09:27;;;;;;;3.00;1.60;;;;;;;26.44;54.05;99906.99;104389;1253;69393;-59
2023/08/13 09:11:54;;;;;;;2.20;1.60;;;;;;;26.41;56.15;99906.76;106366;1253;73094;-59
2023/08/13 09:14:23;;;;;;;2.90;1.70;;;;;;;26.45;57.73;99907.31;104415;1269;60565;-60
2023/08/13 09:16:54;;;;;;;2.10;1.50;;;;;;;26.50;57.34;99903.30;106173;1253;60444;-60
2023/08/13 09:19:25;;;;;;;2.20;1.70;;;;;;;26.60;55.28;99903.02;108433;1253;72785;-60
2023/08/13 09:21:59;;;;;;;2.60;1.70;;;;;;;26.58;54.34;99902.65;108452;1253;69828;-60
2023/08/13 09:24:37;;;;;;;5.20;1.80;;;;;;;26.50;54.67;99909.41;108409;1253;72318;-61
2023/08/13 09:27:05;;;;;;;3.00;1.60;;;;;;;26.46;54.44;99902.83;107269;1253;60823;-59
2023/08/13 09:29:32;;;;;;;2.10;1.70;;;;;;;26.57;56.22;99901.87;105131;1255;60879;-61
2023/08/13 09:31:59;;;;;;;1.70;1.60;;;;;;;26.76;54.78;99898.05;104589;1269;72812;-59
2023/08/13 09:34:27;;;;;;;;;;;;;;;26.94;53.82;99903.58;104271;1276;69982;-60
2023/08/13 09:36:55;;;;;;;1.90;1.60;;;;;;;27.07;51.56;99901.63;104368;1276;72752;-60
2023/08/13 09:39:22;;;;;;;;;;;;;;;27.03;48.69;99899.92;104331;1269;60737;-60
2023/08/13 09:41:50;;;;;;;3.00;1.40;;;;;;;27.12;50.24;99902.47;104301;1258;60432;-61
2023/08/13 09:44:19;;;;;;;3.80;1.90;;;;;;;27.25;53.41;99901.86;104336;1257;73528;-61
2023/08/13 09:46:53;;;;;;;4.60;1.50;;;;;;;27.23;50.47;99903.83;104311;1258;69015;-60
2023/08/13 09:49:23;;;;;;;2.60;1.90;;;;;;;27.05;51.10;99902.15;104213;1276;72761;-60
2023/08/13 09:51:51;;;;;;;1.60;1.40;;;;;;;26.93;52.15;99904.90;104245;1258;60569;-60
2023/08/13 09:54:28;;;;;;;2.50;1.70;;;;;;;26.93;52.51;99902.91;104347;1276;60191;-60
2023/08/13 09:57:08;;;;;;;4.70;1.80;;;;;;;27.00;51.65;99900.33;104289;1276;73509;-60
2023/08/13 10:02:00;;;;;;;2.40;1.50;;;;;;;26.83;50.22;99898.57;101507;1295;601538;-61
2023/08/13 10:04:28;;;;;;;2.20;1.50;;;;;;;27.30;50.96;99902.21;103477;1272;59895;-60
2023/08/13 10:06:56;;;;;;;3.30;1.90;;;;;;;27.39;48.73;99902.86;103752;1270;59717;-61
2023/08/13 10:09:24;;;;;;;2.40;1.60;;;;;;;27.51;49.22;99897.13;103378;1282;72277;-62
2023/08/13 10:11:52;;;;;;;3.80;2.10;;;;;;;27.58;48.38;99898.34;103726;1267;69766;-59
2023/08/13 10:14:20;;;;;;;5.90;2.10;;;;;;;27.74;48.01;99891.27;103618;1283;71505;-59
2023/08/13 10:16:48;;;;;;;3.40;1.80;;;;;;;27.84;48.03;99888.48;103878;1268;204434;-60
2023/08/13 10:19:17;;;;;;;;;;;;;;;27.87;47.84;99886.23;105280;1263;59741;-61
2023/08/13 10:21:53;;;;;;;1.70;1.60;;;;;;;27.83;47.10;99889.20;105485;1267;73348;-62
2023/08/13 10:24:22;;;;;;;3.00;1.50;;;;;;;27.78;46.97;99892.75;103864;1270;69094;-60
2023/08/13 10:26:50;;;;;;;3.20;1.60;;;;;;;27.77;48.19;99891.46;104317;1264;72796;-61
2023/08/13 10:29:18;;;;;;;;;;;;;;;27.76;49.81;99890.83;104428;1271;59872;-60
2023/08/13 10:31:55;;;;;;;2.40;1.70;;;;;;;27.75;50.59;99892.41;103899;1267;59746;-60
2023/08/13 10:34:39;;;;;;;5.30;2.30;;;;;;;27.78;50.37;99886.34;104113;1264;73683;-59
2023/08/13 10:37:13;;;;;;;2.50;1.70;;;;;;;27.94;50.07;99885.21;103886;1268;69595;-59
2023/08/13 10:39:41;;;;;;;2.70;1.70;;;;;;;28.10;49.19;99883.65;104022;1267;72383;-59
2023/08/13 10:42:34;;;;;;;5.50;1.90;;;;;;;28.25;49.58;99891.69;103926;1265;59800;-59
2023/08/13 10:45:02;;;;;;;2.30;1.70;;;;;;;28.06;47.57;99893.67;103905;1264;59671;-60
2023/08/13 10:47:39;;;;;;;4.30;1.70;;;;;;;27.97;49.14;99898.45;103942;1270;73123;-58
2023/08/13 10:50:29;;;;;;;4.30;2.00;;;;;;;27.92;49.04;99899.30;104053;1260;69160;-60
2023/08/13 10:53:19;;;;;;;2.60;1.50;;;;;;;28.02;48.25;99894.59;103874;1264;71656;-60
2023/08/13 10:55:54;;;;;;;2.10;1.80;;;;;;;28.12;48.39;99890.69;104041;1266;60152;-59
2023/08/13 10:58:29;;;;;;;3.50;1.90;;;;;;;28.19;48.65;99889.51;103932;1260;62874;-60
2023/08/13 11:01:12;;;;;;;1.90;1.70;;;;;;;28.14;47.47;99889.81;103934;1262;72851;-59
2023/08/13 11:03:44;;;;;;;2.70;1.70;;;;;;;28.21;48.04;99890.86;103963;1266;69812;-59
2023/08/13 11:06:17;;;;;;;1.90;1.50;;;;;;;28.01;45.61;99892.55;104168;1266;72886;-59
2023/08/13 11:08:46;;;;;;;4.50;1.50;;;;;;;28.02;45.92;99886.34;103980;1268;61208;-59
2023/08/13 11:11:16;;;;;;;1.80;1.70;;;;;;;28.08;46.93;99881.84;104138;1271;60690;-59
2023/08/13 11:13:44;;;;;;;5.10;1.60;;;;;;;28.14;47.59;99882.34;104299;1258;72032;-58
2023/08/13 11:16:13;;;;;;;2.10;1.90;;;;;;;28.23;47.18;99886.66;103977;1261;70113;-58
2023/08/13 11:18:41;;;;;;;4.30;1.90;;;;;;;28.32;46.13;99880.98;104209;1263;73361;-60
2023/08/13 11:21:08;;;;;;;3.70;1.70;;;;;;;28.40;46.14;99874.73;104285;1257;60139;-58
2023/08/13 11:23:36;;;;;;;;;;;;;;;28.39;45.54;99875.98;104189;1263;59834;-58
2023/08/13 11:26:04;;;;;;;2.30;1.90;;;;;;;28.46;45.26;99873.98;104060;1261;72788;-58
2023/08/13 11:28:33;;;;;;;2.00;1.40;;;;;;;28.35;43.96;99876.64;104066;1278;69212;-58
2023/08/13 11:31:01;;;;;;;3.30;1.80;;;;;;;28.28;43.96;99876.15;104169;1257;72534;-58
2023/08/13 11:33:29;;;;;;;2.30;1.50;;;;;;;28.32;44.96;99873.20;104270;1258;59760;-59
2023/08/13 11:35:57;;;;;;;4.90;1.90;;;;;;;28.26;44.66;99871.84;104037;1263;60628;-59
2023/08/13 11:38:25;;;;;;;2.40;1.90;;;;;;;28.40;43.35;99874.28;104137;1258;72840;-60
2023/08/13 11:40:53;;;;;;;1.50;1.40;;;;;;;28.47;43.38;99868.79;104265;1261;69250;-61
2023/08/13 11:43:22;;;;;;;1.90;1.50;;;;;;;28.38;42.60;99866.41;104336;1257;72372;-60
2023/08/13 11:45:50;;;;;;;2.50;1.80;;;;;;;28.24;43.40;99870.34;104330;1262;59810;-60
2023/08/13 11:48:19;;;;;;;2.30;2.00;;;;;;;28.34;44.36;99866.17;104246;1258;59729;-60
2023/08/13 11:50:48;;;;;;;1.90;1.70;;;;;;;28.52;44.59;99865.96;104304;1256;73798;-60
2023/08/13 11:53:19;;;;;;;3.90;2.10;;;;;;;28.71;43.08;99866.08;104068;1263;69758;-60
2023/08/13 11:55:48;;;;;;;3.20;1.40;;;;;;;28.84;43.12;99867.04;104073;1263;72449;-59
2023/08/13 11:58:19;;;;;;;3.90;1.70;;;;;;;28.93;41.61;99866.09;104120;1262;59946;-59
2023/08/13 12:00:47;;;;;;;2.80;1.90;;;;;;;29.01;41.55;99862.00;104038;1258;59766;-59
2023/08/13 12:03:15;;;;;;;6.20;4.30;;;;;;;29.08;41.94;99866.92;104232;1260;73260;-59
2023/08/13 12:05:43;;;;;;;4.20;2.30;;;;;;;29.18;42.89;99865.20;104122;1271;68346;-61
2023/08/13 12:08:13;;;;;;;4.10;3.60;;;;;;;29.32;43.61;99864.20;104101;1273;72411;-60
2023/08/13 12:10:41;;;;;;;3.70;2.50;;;;;;;29.41;42.18;99858.56;104068;1258;59864;-62
2023/08/13 12:13:09;;;;;;;3.20;1.70;;;;;;;29.37;42.13;99854.81;104089;1261;59750;-61
2023/08/13 12:15:37;;;;;;;;;;;;;;;29.35;41.91;99862.66;104167;1267;72850;-60
2023/08/13 12:18:05;;;;;;;4.10;2.00;;;;;;;29.32;41.13;99860.53;104314;1263;69577;-60
2023/08/13 12:20:33;;;;;;;3.00;2.00;;;;;;;29.38;39.97;99856.16;104111;1260;72957;-61
2023/08/13 12:23:01;;;;;;;2.30;1.90;;;;;;;29.31;39.61;99855.53;105990;1257;60722;-60
2023/08/13 12:25:29;;;;;;;2.30;1.80;;;;;;;29.24;39.40;99855.45;104097;1261;59846;-59
2023/08/13 12:27:56;;;;;;;3.00;1.70;;;;;;;29.27;40.47;99855.44;104500;1262;73133;-60
2023/08/13 12:30:24;;;;;;;3.30;1.40;;;;;;;29.37;40.60;99853.69;104093;1278;69508;-59
2023/08/13 12:32:52;;;;;;;;;;;;;;;29.39;39.38;99853.57;104077;1261;72644;-59
2023/08/13 12:35:21;;;;;;;1.80;1.60;;;;;;;29.36;39.58;99854.35;104040;1276;59993;-59
2023/08/13 12:37:49;;;;;;;3.00;1.70;;;;;;;29.30;40.28;99853.83;104354;1258;59743;-59
2023/08/13 12:40:16;;;;;;;;;;;;;;;29.45;40.39;99852.57;104014;1277;72897;-60
2023/08/13 12:42:44;;;;;;;4.10;1.60;;;;;;;29.52;40.00;99848.60;104074;1260;70134;-58
2023/08/13 12:45:12;;;;;;;3.50;1.50;;;;;;;29.53;40.35;99850.16;104201;1263;72380;-59
2023/08/13 12:47:40;;;;;;;1.90;1.80;;;;;;;29.44;39.54;99850.82;104130;1260;59784;-60
2023/08/13 12:50:07;;;;;;;1.40;1.30;;;;;;;29.55;40.06;99847.70;104114;1257;60128;-60
2023/08/13 12:52:35;;;;;;;4.60;1.60;;;;;;;29.64;39.37;99847.17;104143;1257;73521;-59
2023/08/13 12:55:04;;;;;;;1.70;1.60;;;;;;;29.66;39.54;99839.00;104189;1260;69717;-59
2023/08/13 12:57:32;;;;;;;2.20;1.40;;;;;;;29.74;39.23;99845.88;104109;1271;72336;-59